createdAt,value
2022-08-05T00:01:27.954Z,98993.28
2022-08-05T00:04:15.901Z,99009.88
2022-08-05T00:07:26.949Z,99025.53
2022-08-05T00:10:11.181Z,99044.13
2022-08-05T00:12:58.760Z,99043.34
2022-08-05T00:15:56.051Z,99056.72
2022-08-05T00:18:48.286Z,99051.69
2022-08-05T00:21:36.208Z,99067.50
2022-08-05T00:24:31.180Z,99055.31
2022-08-05T00:27:18.875Z,99060.84
2022-08-05T00:30:11.447Z,99065.28
2022-08-05T00:33:00.077Z,99064.44
2022-08-05T00:35:48.002Z,99063.63
2022-08-05T00:38:54.606Z,99069.81
2022-08-05T00:41:55.278Z,99066.41
2022-08-05T00:44:43.084Z,99080.22
2022-08-05T00:47:52.919Z,99065.44
2022-08-05T00:50:41.918Z,99069.03
2022-08-05T00:54:01.324Z,99067.22
2022-08-05T00:56:36.485Z,99061.41
2022-08-05T00:59:25.180Z,99058.59
2022-08-05T01:02:12.837Z,99056.78
2022-08-05T01:05:05.189Z,99062.81
2022-08-05T01:08:41.365Z,99070.63
2022-08-05T01:11:13.700Z,99058.41
2022-08-05T01:14:08.537Z,99064.44
2022-08-05T01:17:05.364Z,99050.44
2022-08-05T01:20:03.455Z,99038.06
2022-08-05T01:23:15.000Z,99017.22
2022-08-05T01:26:26.334Z,99001.78
2022-08-05T01:29:23.047Z,98991.19
2022-08-05T01:32:18.409Z,98978.16
2022-08-05T01:35:11.697Z,98987.59
2022-08-05T01:38:27.435Z,98996.38
2022-08-05T01:41:21.072Z,98996.38
2022-08-05T01:44:11.226Z,99003.22
2022-08-05T01:47:01.415Z,98990.97
2022-08-05T01:50:01.312Z,98991.78
2022-08-05T01:52:51.634Z,98983.16
2022-08-05T01:55:40.964Z,98978.75
2022-08-05T01:58:43.781Z,98964.94
2022-08-05T02:01:40.283Z,98968.53
2022-08-05T02:04:31.218Z,98966.75
2022-08-05T02:07:22.167Z,98953.72
2022-08-05T02:10:17.210Z,98952.91
2022-08-05T02:13:16.453Z,98957.13
2022-08-05T02:16:11.309Z,98961.53
2022-08-05T02:19:13.324Z,98981.38
2022-08-05T02:22:25.407Z,98965.13
2022-08-05T02:25:19.629Z,98957.31
2022-08-05T02:28:11.423Z,98972.94
2022-08-05T02:31:02.258Z,98993.78
2022-08-05T02:33:57.358Z,98996.38
2022-08-05T02:36:50.599Z,98997.38
2022-08-05T02:39:41.337Z,98994.56
2022-08-05T02:42:36.635Z,98992.78
2022-08-05T02:45:25.427Z,99003.38
2022-08-05T02:48:13.604Z,99001.59
2022-08-05T02:51:02.299Z,99001.59
2022-08-05T02:53:50.316Z,98992.34
2022-08-05T02:56:45.970Z,99010.59
2022-08-05T02:59:47.843Z,99009.75
2022-08-05T03:02:42.889Z,99013.34
2022-08-05T03:06:53.647Z,99011.72
2022-08-05T03:08:42.705Z,99019.72
2022-08-05T03:11:57.318Z,99020.72
2022-08-05T03:14:39.078Z,99021.69
2022-08-05T03:17:33.465Z,99022.53
2022-08-05T03:20:29.179Z,99030.34
2022-08-05T03:23:18.040Z,99030.34
2022-08-05T03:26:31.342Z,99051.16
2022-08-05T03:29:17.381Z,99058.34
2022-08-05T03:32:08.687Z,99067.97
2022-08-05T03:34:56.150Z,99068.75
2022-08-05T03:37:46.531Z,99041.09
2022-08-05T03:40:34.008Z,99018.66
2022-08-05T03:44:09.502Z,99010.22
2022-08-05T03:46:32.746Z,99017.25
2022-08-05T03:49:24.227Z,99044.25
2022-08-05T03:52:38.778Z,99110.34
2022-08-05T03:56:05.294Z,99128.75
2022-08-05T03:58:49.443Z,99148.97
2022-08-05T04:01:45.283Z,99142.16
2022-08-05T04:04:38.113Z,99156.94
2022-08-05T04:07:27.101Z,99171.94
2022-08-05T04:10:14.996Z,99158.13
2022-08-05T04:13:05.238Z,99161.91
2022-08-05T04:16:04.534Z,99183.06
2022-08-05T04:18:53.961Z,99202.50
2022-08-05T04:22:09.390Z,99221.88
2022-08-05T04:24:52.475Z,99236.84
2022-08-05T04:27:43.798Z,99243.03
2022-08-05T04:30:45.802Z,99241.59
2022-08-05T04:33:54.689Z,99235.59
2022-08-05T04:36:49.348Z,99234.13
2022-08-05T04:39:40.000Z,99233.34
2022-08-05T04:42:27.622Z,99238.72
2022-08-05T04:45:22.884Z,99239.72
2022-08-05T04:48:27.922Z,99220.84
2022-08-05T04:51:17.592Z,99224.44
2022-08-05T04:54:06.066Z,99228.03
2022-08-05T04:56:58.949Z,99238.44
2022-08-05T04:59:48.096Z,99250.63
2022-08-05T05:02:41.967Z,99262.06
2022-08-05T05:05:31.684Z,99247.41
2022-08-05T05:08:30.185Z,99249.22
2022-08-05T05:11:17.652Z,99254.41
2022-08-05T05:14:06.492Z,99263.03
2022-08-05T05:16:55.992Z,99265.81
2022-08-05T05:19:47.306Z,99286.63
2022-08-05T05:22:34.852Z,99277.19
2022-08-05T05:25:32.978Z,99290.22
2022-08-05T05:28:28.024Z,99280.78
2022-08-05T05:31:18.453Z,99289.59
2022-08-05T05:34:05.646Z,99305.22
2022-08-05T05:36:53.515Z,99329.44
2022-08-05T05:39:40.955Z,99320.81
2022-08-05T05:42:30.557Z,99311.22
2022-08-05T05:45:18.978Z,99279.19
2022-08-05T05:48:08.970Z,99285.38
2022-08-05T05:50:56.072Z,99274.13
2022-08-05T05:53:45.952Z,99284.38
2022-08-05T05:56:44.256Z,99290.38
2022-08-05T05:59:40.337Z,99291.19
2022-08-05T06:02:37.461Z,99274.59
2022-08-05T06:05:26.809Z,99261.59
2022-08-05T06:08:14.222Z,99268.41
2022-08-05T06:11:18.896Z,99259.63
2022-08-05T06:14:07.196Z,99263.66
2022-08-05T06:16:54.562Z,99260.06
2022-08-05T06:19:44.278Z,99261.50
2022-08-05T06:22:45.034Z,99257.94
2022-08-05T06:26:12.761Z,99256.94
2022-08-05T06:28:40.885Z,99256.94
2022-08-05T06:31:30.448Z,99244.72
2022-08-05T06:34:19.895Z,99246.53
2022-08-05T06:37:08.345Z,99237.72
2022-08-05T06:39:57.002Z,99240.19
2022-08-05T06:42:44.480Z,99240.00
2022-08-05T06:45:45.034Z,99227.41
2022-08-05T06:48:56.339Z,99221.03
2022-08-05T06:51:46.232Z,99226.72
2022-08-05T06:54:33.885Z,99226.53
2022-08-05T06:57:58.011Z,99219.19
2022-08-05T07:00:33.853Z,99243.88
2022-08-05T07:03:32.350Z,99252.13
2022-08-05T07:06:20.690Z,99247.38
2022-08-05T07:09:07.987Z,99260.03
2022-08-05T07:11:55.902Z,99271.88
2022-08-05T07:15:06.697Z,99273.34
2022-08-05T07:18:09.753Z,99288.78
2022-08-05T07:20:58.253Z,99290.41
2022-08-05T07:23:52.431Z,99299.69
2022-08-05T07:26:39.997Z,99296.91
2022-08-05T07:30:24.232Z,99303.56
2022-08-05T07:32:38.884Z,99303.38
2022-08-05T07:36:04.849Z,99312.81
2022-08-05T07:38:43.315Z,99325.00
2022-08-05T07:42:12.893Z,99320.63
2022-08-05T07:44:39.135Z,99323.06
2022-08-05T07:47:26.883Z,99308.22
2022-08-05T07:50:23.667Z,99311.47
2022-08-05T07:53:19.788Z,99310.50
2022-08-05T07:57:02.739Z,99321.53
2022-08-05T07:59:14.329Z,99304.28
2022-08-05T08:02:03.219Z,99294.31
2022-08-05T08:04:50.869Z,99294.13
2022-08-05T08:07:59.083Z,99280.31
2022-08-05T08:10:48.802Z,99295.09
2022-08-05T08:13:43.022Z,99297.56
2022-08-05T08:16:50.947Z,99314.00
2022-08-05T08:20:22.499Z,99315.63
2022-08-05T08:22:55.597Z,99302.59
2022-08-05T08:26:00.928Z,99299.97
2022-08-05T08:28:59.012Z,99304.38
2022-08-05T08:31:49.463Z,99323.63
2022-08-05T08:34:36.691Z,99331.25
2022-08-05T08:37:28.100Z,99327.63
2022-08-05T08:40:17.051Z,99318.03
2022-08-05T08:45:20.442Z,99311.84
2022-08-05T08:46:15.592Z,99284.97
2022-08-05T08:50:07.798Z,99295.19
2022-08-05T08:52:15.886Z,99295.19
2022-08-05T08:55:04.423Z,99308.03
2022-08-05T08:58:02.769Z,99290.00
2022-08-05T09:00:51.533Z,99269.97
2022-08-05T09:03:45.136Z,99276.16
2022-08-05T09:06:33.330Z,99279.56
2022-08-05T09:09:23.915Z,99264.94
2022-08-05T09:12:20.435Z,99270.94
2022-08-05T09:15:15.861Z,99251.91
2022-08-05T09:18:03.067Z,99226.66
2022-08-05T09:20:51.338Z,99185.75
2022-08-05T09:23:43.818Z,99224.06
2022-08-05T09:26:32.400Z,99222.63
2022-08-05T09:29:20.378Z,99234.66
2022-08-05T09:32:51.842Z,99258.28
2022-08-05T09:35:26.683Z,99280.13
2022-08-05T09:38:18.280Z,99280.91
2022-08-05T09:41:16.104Z,99290.53
2022-08-05T09:44:03.821Z,99290.34
2022-08-05T09:46:53.626Z,99280.56
2022-08-05T09:50:00.966Z,99284.78
2022-08-05T09:52:59.904Z,99281.97
2022-08-05T09:55:56.534Z,99293.06
2022-08-05T09:58:59.576Z,99298.72
2022-08-05T10:01:48.071Z,99294.31
2022-08-05T10:04:48.333Z,99289.75
2022-08-05T10:08:36.791Z,99299.78
2022-08-05T10:11:04.673Z,99297.63
2022-08-05T10:13:54.734Z,99293.84
2022-08-05T10:16:52.411Z,99286.66
2022-08-05T10:20:04.289Z,99289.53
2022-08-05T10:22:51.272Z,99289.16
2022-08-05T10:25:39.004Z,99292.84
2022-08-05T10:28:29.120Z,99294.59
2022-08-05T10:32:49.686Z,99296.09
2022-08-05T10:34:30.082Z,99301.03
2022-08-05T10:37:19.985Z,99300.47
2022-08-05T10:40:22.331Z,99302.53
2022-08-05T10:43:23.188Z,99308.34
2022-08-05T10:46:13.519Z,99323.22
2022-08-05T10:49:10.487Z,99318.78
2022-08-05T10:52:05.236Z,99320.59
2022-08-05T10:55:06.924Z,99316.97
2022-08-05T10:58:15.660Z,99319.78
2022-08-05T11:01:07.928Z,99316.38
2022-08-05T11:04:09.590Z,99312.13
2022-08-05T11:07:09.040Z,99319.34
2022-08-05T11:10:09.481Z,99301.28
2022-08-05T11:12:58.302Z,99287.59
2022-08-05T11:16:00.210Z,99289.59
2022-08-05T11:18:48.840Z,99311.00
2022-08-05T11:21:48.749Z,99299.78
2022-08-05T11:24:36.923Z,99319.19
2022-08-05T11:27:45.859Z,99322.97
2022-08-05T11:31:54.381Z,99321.09
2022-08-05T11:34:52.063Z,99324.25
2022-08-05T11:38:30.408Z,99332.41
2022-08-05T11:41:34.775Z,99336.19
2022-08-05T11:44:40.761Z,99334.56
2022-08-05T11:47:49.253Z,99337.34
2022-08-05T11:50:39.580Z,99356.59
2022-08-05T11:53:27.241Z,99357.56
2022-08-05T11:56:21.580Z,99361.00
2022-08-05T11:59:30.731Z,99358.56
2022-08-05T12:02:40.161Z,99362.16
2022-08-05T12:05:36.054Z,99359.56
2022-08-05T12:08:27.303Z,99364.97
2022-08-05T12:11:21.526Z,99363.34
2022-08-05T12:14:10.350Z,99362.53
2022-08-05T12:16:57.453Z,99357.31
2022-08-05T12:20:25.285Z,99368.53
2022-08-05T12:23:09.972Z,99364.31
2022-08-05T12:25:57.482Z,99368.53
2022-08-05T12:28:44.890Z,99365.94
2022-08-05T12:31:43.797Z,99373.75
2022-08-05T12:34:39.157Z,99367.91
2022-08-05T12:37:30.070Z,99375.72
2022-08-05T12:40:26.428Z,99377.34
2022-08-05T12:43:20.892Z,99385.34
2022-08-05T12:46:08.523Z,99374.94
2022-08-05T12:49:01.487Z,99379.16
2022-08-05T12:52:14.033Z,99383.72
2022-08-05T12:55:23.605Z,99386.50
2022-08-05T12:58:50.749Z,99392.56
2022-08-05T13:02:02.842Z,99397.78
2022-08-05T13:04:54.636Z,99404.56
2022-08-05T13:08:00.586Z,99404.75
2022-08-05T13:10:50.801Z,99402.16
2022-08-05T13:14:05.634Z,99406.38
2022-08-05T13:16:56.448Z,99401.34
2022-08-05T13:19:59.072Z,99402.97
2022-08-05T13:22:51.275Z,99402.16
2022-08-05T13:25:51.631Z,99399.38
2022-08-05T13:28:47.645Z,99396.94
2022-08-05T13:32:05.037Z,99401.97
2022-08-05T13:34:47.260Z,99407.38
2022-08-05T13:37:35.279Z,99403.97
2022-08-05T13:40:36.670Z,99403.97
2022-08-05T13:43:44.613Z,99398.94
2022-08-05T13:47:01.889Z,99384.19
2022-08-05T13:49:46.593Z,99400.63
2022-08-05T13:52:35.989Z,99383.63
2022-08-05T13:55:40.732Z,99383.91
2022-08-05T13:58:31.203Z,99378.34
2022-08-05T14:01:18.690Z,99375.22
2022-08-05T14:04:26.459Z,99373.09
2022-08-05T14:07:26.218Z,99359.84
2022-08-05T14:10:28.959Z,99364.69
2022-08-05T14:13:17.860Z,99363.91
2022-08-05T14:16:11.472Z,99362.47
2022-08-05T14:18:58.986Z,99364.25
2022-08-05T14:22:08.681Z,99374.69
2022-08-05T14:24:59.014Z,99370.63
2022-08-05T14:27:48.422Z,99365.25
2022-08-05T14:30:35.505Z,99364.25
2022-08-05T14:33:23.978Z,99366.84
2022-08-05T14:36:11.920Z,99356.41
2022-08-05T14:39:02.841Z,99361.44
2022-08-05T14:42:15.912Z,99360.66
2022-08-05T14:44:58.290Z,99353.81
2022-08-05T14:48:03.446Z,99358.22
2022-08-05T14:50:53.046Z,99351.56
2022-08-05T14:53:44.528Z,99354.19
2022-08-05T14:56:33.947Z,99356.00
2022-08-05T14:59:21.990Z,99354.19
2022-08-05T15:02:15.981Z,99352.38
2022-08-05T15:05:08.498Z,99368.84
2022-08-05T15:08:10.836Z,99363.63
2022-08-05T15:11:04.219Z,99363.63
2022-08-05T15:13:52.899Z,99353.19
2022-08-05T15:16:40.441Z,99364.25
2022-08-05T15:19:27.892Z,99366.84
2022-08-05T15:22:18.274Z,99378.13
2022-08-05T15:25:11.467Z,99377.28
2022-08-05T15:28:01.925Z,99378.91
2022-08-05T15:30:51.536Z,99373.09
2022-08-05T15:34:05.144Z,99386.13
2022-08-05T15:36:47.688Z,99390.69
2022-08-05T15:41:01.462Z,99384.50
2022-08-05T15:42:53.965Z,99404.53
2022-08-05T15:45:46.054Z,99402.75
2022-08-05T15:48:34.954Z,99407.97
2022-08-05T15:52:09.968Z,99405.34
2022-08-05T15:54:35.063Z,99412.53
2022-08-05T15:57:24.713Z,99417.75
2022-08-05T16:00:29.278Z,99417.13
2022-08-05T16:03:20.150Z,99422.69
2022-08-05T16:06:11.389Z,99425.28
2022-08-05T16:08:58.645Z,99432.47
2022-08-05T16:11:49.666Z,99430.84
2022-08-05T16:14:40.091Z,99438.84
2022-08-05T16:17:27.244Z,99447.84
2022-08-05T16:20:16.294Z,99456.81
2022-08-05T16:23:08.493Z,99452.75
2022-08-05T16:26:06.641Z,99453.13
2022-08-05T16:28:54.682Z,99455.13
2022-08-05T16:31:57.274Z,99468.66
2022-08-05T16:34:44.872Z,99468.03
2022-08-05T16:38:15.603Z,99468.22
2022-08-05T16:40:55.814Z,99474.41
2022-08-05T16:43:47.110Z,99471.16
2022-08-05T16:46:34.457Z,99472.78
2022-08-05T16:49:23.398Z,99482.59
2022-08-05T16:52:10.702Z,99479.16
2022-08-05T16:54:58.908Z,99485.34
2022-08-05T16:57:59.850Z,99492.38
2022-08-05T17:00:49.562Z,99491.72
2022-08-05T17:03:37.436Z,99489.28
2022-08-05T17:06:27.239Z,99499.09
2022-08-05T17:09:14.312Z,99494.06
2022-08-05T17:12:02.000Z,99492.63
2022-08-05T17:14:51.508Z,99492.78
2022-08-05T17:17:42.688Z,99501.59
2022-08-05T17:20:30.298Z,99508.75
2022-08-05T17:23:42.023Z,99510.75
2022-08-05T17:26:24.778Z,99498.06
2022-08-05T17:29:13.194Z,99505.88
2022-08-05T17:32:02.247Z,99507.84
2022-08-05T17:34:50.278Z,99512.25
2022-08-05T17:37:45.170Z,99521.84
2022-08-05T17:40:33.883Z,99525.59
2022-08-05T17:43:46.487Z,99529.41
2022-08-05T17:46:30.505Z,99519.44
2022-08-05T17:49:19.122Z,99523.03
2022-08-05T17:52:11.779Z,99516.38
2022-08-05T17:54:59.258Z,99526.16
2022-08-05T17:57:48.763Z,99532.53
2022-08-05T18:00:40.850Z,99532.88
2022-08-05T18:03:58.407Z,99540.03
2022-08-05T18:06:42.175Z,99553.41
2022-08-05T18:09:58.943Z,99554.56
2022-08-05T18:12:40.667Z,99552.31
2022-08-05T18:15:28.371Z,99557.84
2022-08-05T18:18:21.285Z,99560.59
2022-08-05T18:21:20.089Z,99560.78
2022-08-05T18:24:12.595Z,99572.53
2022-08-05T18:27:01.607Z,99574.31
2022-08-05T18:29:54.067Z,99585.72
2022-08-05T18:32:53.356Z,99591.09
2022-08-05T18:36:01.350Z,99590.59
2022-08-05T18:38:52.828Z,99589.81
2022-08-05T18:41:55.688Z,99593.38
2022-08-05T18:44:55.457Z,99604.16
2022-08-05T18:47:43.544Z,99612.94
2022-08-05T18:50:48.343Z,99614.06
2022-08-05T18:53:45.770Z,99625.63
2022-08-05T18:56:38.032Z,99629.53
2022-08-05T18:59:44.174Z,99620.13
2022-08-05T19:02:35.296Z,99636.06
2022-08-05T19:06:11.177Z,99635.44
2022-08-05T19:08:31.302Z,99645.19
2022-08-05T19:11:28.346Z,99651.38
2022-08-05T19:14:53.378Z,99663.75
2022-08-05T19:17:59.158Z,99671.69
2022-08-05T19:20:41.690Z,99686.63
2022-08-05T19:24:06.960Z,99692.84
2022-08-05T19:26:43.752Z,99693.63
2022-08-05T19:29:42.499Z,99704.38
2022-08-05T19:32:32.077Z,99701.94
2022-08-05T19:35:21.774Z,99715.09
2022-08-05T19:38:09.490Z,99722.91
2022-08-05T19:40:56.996Z,99726.50
2022-08-05T19:44:05.576Z,99727.47
2022-08-05T19:46:52.106Z,99734.63
2022-08-05T19:49:41.001Z,99729.41
2022-08-05T19:52:40.388Z,99730.41
2022-08-05T19:56:14.452Z,99736.59
2022-08-05T19:58:53.372Z,99738.84
2022-08-05T20:01:41.585Z,99746.03
2022-08-05T20:04:31.877Z,99753.16
2022-08-05T20:07:46.854Z,99757.72
2022-08-05T20:10:28.005Z,99756.25
2022-08-05T20:13:16.397Z,99751.22
2022-08-05T20:16:04.167Z,99760.78
2022-08-05T20:18:55.631Z,99762.59
2022-08-05T20:21:43.444Z,99771.38
2022-08-05T20:24:34.454Z,99774.94
2022-08-05T20:27:26.731Z,99776.91
2022-08-05T20:30:15.175Z,99780.47
2022-08-05T20:33:07.170Z,99779.00
2022-08-05T20:35:56.824Z,99782.41
2022-08-05T20:38:54.621Z,99782.72
2022-08-05T20:41:47.991Z,99795.09
2022-08-05T20:44:37.963Z,99801.25
2022-08-05T20:47:32.094Z,99800.59
2022-08-05T20:50:19.637Z,99812.97
2022-08-05T20:53:06.959Z,99808.72
2022-08-05T20:56:08.580Z,99813.28
2022-08-05T20:58:59.929Z,99811.81
2022-08-05T21:02:01.242Z,99817.19
2022-08-05T21:04:48.577Z,99821.53
2022-08-05T21:07:50.493Z,99825.94
2022-08-05T21:10:39.178Z,99827.88
2022-08-05T21:13:47.525Z,99841.03
2022-08-05T21:16:44.750Z,99841.34
2022-08-05T21:19:47.354Z,99840.53
2022-08-05T21:22:35.397Z,99846.00
2022-08-05T21:25:22.993Z,99855.63
2022-08-05T21:28:24.005Z,99852.50
2022-08-05T21:31:18.055Z,99845.81
2022-08-05T21:34:06.988Z,99852.81
2022-08-05T21:36:54.658Z,99850.53
2022-08-05T21:39:41.892Z,99851.50
2022-08-05T21:42:43.975Z,99861.91
2022-08-05T21:45:51.614Z,99859.47
2022-08-05T21:48:39.685Z,99853.59
2022-08-05T21:52:21.846Z,99854.41
2022-08-05T21:54:35.936Z,99864.16
2022-08-05T21:57:32.604Z,99864.31
2022-08-05T22:00:20.268Z,99863.63
2022-08-05T22:03:09.828Z,99857.78
2022-08-05T22:05:57.616Z,99870.94
2022-08-05T22:08:46.724Z,99872.88
2022-08-05T22:11:39.382Z,99880.03
2022-08-05T22:14:35.768Z,99865.56
2022-08-05T22:17:25.894Z,99875.28
2022-08-05T22:20:16.404Z,99872.66
2022-08-05T22:23:21.924Z,99881.47
2022-08-05T22:26:28.387Z,99878.03
2022-08-05T22:29:17.392Z,99879.97
2022-08-05T22:32:06.482Z,99884.50
2022-08-05T22:34:57.392Z,99882.88
2022-08-05T22:37:58.643Z,99892.44
2022-08-05T22:40:49.342Z,99892.63
2022-08-05T22:43:40.651Z,99907.53
2022-08-05T22:46:28.253Z,99904.13
2022-08-05T22:50:18.157Z,99913.72
2022-08-05T22:52:32.775Z,99914.66
2022-08-05T22:55:22.997Z,99920.03
2022-08-05T22:58:11.669Z,99923.59
2022-08-05T23:01:03.237Z,99918.53
2022-08-05T23:03:59.152Z,99917.72
2022-08-05T23:06:47.730Z,99936.88
2022-08-05T23:09:58.180Z,99933.44
2022-08-05T23:12:44.081Z,99927.59
2022-08-05T23:15:35.405Z,99924.16
2022-08-05T23:18:24.797Z,99927.75
2022-08-05T23:21:12.317Z,99939.91
2022-08-05T23:24:11.282Z,99936.69
2022-08-05T23:26:59.140Z,99935.84
2022-08-05T23:29:49.324Z,99945.41
2022-08-05T23:32:37.864Z,99944.09
2022-08-05T23:35:34.569Z,99952.84
2022-08-05T23:38:22.089Z,99962.59
2022-08-05T23:41:09.325Z,99960.00
2022-08-05T23:44:05.963Z,99966.25
2022-08-05T23:46:56.365Z,99964.78
2022-08-05T23:49:45.658Z,99972.72
2022-08-05T23:52:36.216Z,99966.84
2022-08-05T23:55:37.369Z,99973.16
2022-08-05T23:58:31.687Z,99971.53
